sensor_id;sensor_type;location;lat;lon;timestamp;temperature;humidity
24468;DHT22;12634;50.852;5.676;2023-04-24T00:01:43;9.00;99.90
24468;DHT22;12634;50.852;5.676;2023-04-24T00:04:11;9.00;99.90
24468;DHT22;12634;50.852;5.676;2023-04-24T00:06:39;9.00;99.90
24468;DHT22;12634;50.852;5.676;2023-04-24T00:09:08;9.00;99.90
24468;DHT22;12634;50.852;5.676;2023-04-24T00:11:38;9.10;99.90
24468;DHT22;12634;50.852;5.676;2023-04-24T00:14:05;9.10;99.90
24468;DHT22;12634;50.852;5.676;2023-04-24T00:16:32;9.10;99.90
24468;DHT22;12634;50.852;5.676;2023-04-24T00:18:59;9.10;99.90
24468;DHT22;12634;50.852;5.676;2023-04-24T00:21:26;9.10;99.90
24468;DHT22;12634;50.852;5.676;2023-04-24T00:23:53;9.10;99.90
24468;DHT22;12634;50.852;5.676;2023-04-24T00:26:20;9.10;99.90
24468;DHT22;12634;50.852;5.676;2023-04-24T00:28:50;9.10;99.90
24468;DHT22;12634;50.852;5.676;2023-04-24T00:31:17;9.10;99.90
24468;DHT22;12634;50.852;5.676;2023-04-24T00:33:44;9.10;99.90
24468;DHT22;12634;50.852;5.676;2023-04-24T00:36:11;9.20;99.90
24468;DHT22;12634;50.852;5.676;2023-04-24T00:38:39;9.20;99.90
24468;DHT22;12634;50.852;5.676;2023-04-24T00:41:06;9.20;99.90
24468;DHT22;12634;50.852;5.676;2023-04-24T00:43:34;9.20;99.90
24468;DHT22;12634;50.852;5.676;2023-04-24T00:46:03;9.20;99.90
24468;DHT22;12634;50.852;5.676;2023-04-24T00:48:30;9.20;99.90
24468;DHT22;12634;50.852;5.676;2023-04-24T00:50:58;9.20;99.90
24468;DHT22;12634;50.852;5.676;2023-04-24T00:53:25;9.20;99.90
24468;DHT22;12634;50.852;5.676;2023-04-24T00:55:52;9.30;99.90
24468;DHT22;12634;50.852;5.676;2023-04-24T00:58:19;9.20;99.90
24468;DHT22;12634;50.852;5.676;2023-04-24T01:00:49;9.30;99.90
24468;DHT22;12634;50.852;5.676;2023-04-24T01:03:20;9.30;99.90
24468;DHT22;12634;50.852;5.676;2023-04-24T01:05:49;9.30;99.90
24468;DHT22;12634;50.852;5.676;2023-04-24T01:08:17;9.30;99.90
24468;DHT22;12634;50.852;5.676;2023-04-24T01:10:44;9.30;99.90
24468;DHT22;12634;50.852;5.676;2023-04-24T01:13:11;9.20;99.90
24468;DHT22;12634;50.852;5.676;2023-04-24T01:15:38;9.30;99.90
24468;DHT22;12634;50.852;5.676;2023-04-24T01:18:06;9.30;99.90
24468;DHT22;12634;50.852;5.676;2023-04-24T01:20:34;9.30;99.90
24468;DHT22;12634;50.852;5.676;2023-04-24T01:23:07;9.30;99.90
24468;DHT22;12634;50.852;5.676;2023-04-24T01:25:34;9.30;99.90
24468;DHT22;12634;50.852;5.676;2023-04-24T01:28:01;9.30;99.90
24468;DHT22;12634;50.852;5.676;2023-04-24T01:30:29;9.30;99.90
24468;DHT22;12634;50.852;5.676;2023-04-24T01:32:58;9.30;99.90
24468;DHT22;12634;50.852;5.676;2023-04-24T01:35:26;9.30;99.90
24468;DHT22;12634;50.852;5.676;2023-04-24T01:37:53;9.30;99.90
24468;DHT22;12634;50.852;5.676;2023-04-24T01:40:22;9.40;99.90
24468;DHT22;12634;50.852;5.676;2023-04-24T01:42:49;9.40;99.90
24468;DHT22;12634;50.852;5.676;2023-04-24T01:45:16;9.40;99.90
24468;DHT22;12634;50.852;5.676;2023-04-24T01:47:44;9.40;99.90
24468;DHT22;12634;50.852;5.676;2023-04-24T01:50:12;9.40;99.90
24468;DHT22;12634;50.852;5.676;2023-04-24T01:52:39;9.40;99.90
24468;DHT22;12634;50.852;5.676;2023-04-24T01:55:07;9.30;99.90
24468;DHT22;12634;50.852;5.676;2023-04-24T01:57:36;9.30;99.90
24468;DHT22;12634;50.852;5.676;2023-04-24T02:00:04;9.30;99.90
24468;DHT22;12634;50.852;5.676;2023-04-24T02:02:32;9.30;99.90
24468;DHT22;12634;50.852;5.676;2023-04-24T02:04:59;9.40;99.90
24468;DHT22;12634;50.852;5.676;2023-04-24T02:07:26;9.30;99.90
24468;DHT22;12634;50.852;5.676;2023-04-24T02:09:53;9.30;99.90
24468;DHT22;12634;50.852;5.676;2023-04-24T02:12:21;9.30;99.90
24468;DHT22;12634;50.852;5.676;2023-04-24T02:14:49;9.30;99.90
24468;DHT22;12634;50.852;5.676;2023-04-24T02:17:16;9.30;99.90
24468;DHT22;12634;50.852;5.676;2023-04-24T02:19:44;9.30;99.90
24468;DHT22;12634;50.852;5.676;2023-04-24T02:22:12;9.30;99.90
24468;DHT22;12634;50.852;5.676;2023-04-24T02:24:39;9.40;99.90
24468;DHT22;12634;50.852;5.676;2023-04-24T02:27:06;9.30;99.90
24468;DHT22;12634;50.852;5.676;2023-04-24T02:29:33;9.40;99.90
24468;DHT22;12634;50.852;5.676;2023-04-24T02:32:02;9.30;99.90
24468;DHT22;12634;50.852;5.676;2023-04-24T02:34:29;9.30;99.90
24468;DHT22;12634;50.852;5.676;2023-04-24T02:36:56;9.30;99.90
24468;DHT22;12634;50.852;5.676;2023-04-24T02:39:23;9.30;99.90
24468;DHT22;12634;50.852;5.676;2023-04-24T02:41:50;9.20;99.90
24468;DHT22;12634;50.852;5.676;2023-04-24T02:44:17;9.10;99.90
24468;DHT22;12634;50.852;5.676;2023-04-24T02:46:44;9.10;99.90
24468;DHT22;12634;50.852;5.676;2023-04-24T02:49:13;9.10;99.90
24468;DHT22;12634;50.852;5.676;2023-04-24T02:51:41;9.00;99.90
24468;DHT22;12634;50.852;5.676;2023-04-24T02:54:08;9.00;99.90
24468;DHT22;12634;50.852;5.676;2023-04-24T02:56:35;9.10;99.90
24468;DHT22;12634;50.852;5.676;2023-04-24T02:59:03;9.10;99.90
24468;DHT22;12634;50.852;5.676;2023-04-24T03:01:30;9.10;99.90
24468;DHT22;12634;50.852;5.676;2023-04-24T03:03:57;9.10;99.90
24468;DHT22;12634;50.852;5.676;2023-04-24T03:06:26;9.10;99.90
24468;DHT22;12634;50.852;5.676;2023-04-24T03:08:53;9.00;99.90
24468;DHT22;12634;50.852;5.676;2023-04-24T03:11:21;8.90;99.90
24468;DHT22;12634;50.852;5.676;2023-04-24T03:13:48;8.90;99.90
24468;DHT22;12634;50.852;5.676;2023-04-24T03:16:15;8.80;99.90
24468;DHT22;12634;50.852;5.676;2023-04-24T03:18:42;8.80;99.90
24468;DHT22;12634;50.852;5.676;2023-04-24T03:21:09;8.70;99.90
24468;DHT22;12634;50.852;5.676;2023-04-24T03:23:37;8.60;99.90
24468;DHT22;12634;50.852;5.676;2023-04-24T03:26:05;8.60;99.90
24468;DHT22;12634;50.852;5.676;2023-04-24T03:28:32;8.60;99.90
24468;DHT22;12634;50.852;5.676;2023-04-24T03:30:59;8.60;99.90
24468;DHT22;12634;50.852;5.676;2023-04-24T03:33:26;8.60;99.90
24468;DHT22;12634;50.852;5.676;2023-04-24T03:35:53;8.60;99.90
24468;DHT22;12634;50.852;5.676;2023-04-24T03:38:20;8.50;99.90
24468;DHT22;12634;50.852;5.676;2023-04-24T03:40:49;8.50;99.90
24468;DHT22;12634;50.852;5.676;2023-04-24T03:43:16;8.50;99.90
24468;DHT22;12634;50.852;5.676;2023-04-24T03:45:43;8.60;99.90
24468;DHT22;12634;50.852;5.676;2023-04-24T03:48:10;8.50;99.90
24468;DHT22;12634;50.852;5.676;2023-04-24T03:50:37;8.50;99.90
24468;DHT22;12634;50.852;5.676;2023-04-24T03:53:04;8.50;99.90
24468;DHT22;12634;50.852;5.676;2023-04-24T03:55:31;8.50;99.90
24468;DHT22;12634;50.852;5.676;2023-04-24T03:58:00;8.50;99.90
24468;DHT22;12634;50.852;5.676;2023-04-24T04:00:28;8.50;99.90
24468;DHT22;12634;50.852;5.676;2023-04-24T04:02:59;8.40;99.90
24468;DHT22;12634;50.852;5.676;2023-04-24T04:05:26;8.50;99.90
24468;DHT22;12634;50.852;5.676;2023-04-24T04:07:53;8.50;99.90
24468;DHT22;12634;50.852;5.676;2023-04-24T04:10:20;8.50;99.90
24468;DHT22;12634;50.852;5.676;2023-04-24T04:12:47;8.50;99.90
24468;DHT22;12634;50.852;5.676;2023-04-24T04:15:16;8.50;99.90
24468;DHT22;12634;50.852;5.676;2023-04-24T04:17:43;8.50;99.90
24468;DHT22;12634;50.852;5.676;2023-04-24T04:20:11;8.50;99.90
24468;DHT22;12634;50.852;5.676;2023-04-24T04:22:39;8.50;99.90
24468;DHT22;12634;50.852;5.676;2023-04-24T04:25:06;8.50;99.90
24468;DHT22;12634;50.852;5.676;2023-04-24T04:27:34;8.50;99.90
24468;DHT22;12634;50.852;5.676;2023-04-24T04:30:02;8.40;99.90
24468;DHT22;12634;50.852;5.676;2023-04-24T04:32:31;8.40;99.90
24468;DHT22;12634;50.852;5.676;2023-04-24T04:35:00;8.40;99.90
24468;DHT22;12634;50.852;5.676;2023-04-24T04:37:28;8.40;99.90
24468;DHT22;12634;50.852;5.676;2023-04-24T04:39:56;8.40;99.90
24468;DHT22;12634;50.852;5.676;2023-04-24T04:42:24;8.40;99.90
24468;DHT22;12634;50.852;5.676;2023-04-24T04:44:52;8.40;99.90
24468;DHT22;12634;50.852;5.676;2023-04-24T04:47:21;8.40;99.90
24468;DHT22;12634;50.852;5.676;2023-04-24T04:49:50;8.40;99.90
24468;DHT22;12634;50.852;5.676;2023-04-24T04:52:17;8.40;99.90
24468;DHT22;12634;50.852;5.676;2023-04-24T04:54:45;8.40;99.90
24468;DHT22;12634;50.852;5.676;2023-04-24T04:57:12;8.40;99.90
24468;DHT22;12634;50.852;5.676;2023-04-24T04:59:39;8.40;99.90
24468;DHT22;12634;50.852;5.676;2023-04-24T05:02:06;8.40;99.90
24468;DHT22;12634;50.852;5.676;2023-04-24T05:04:33;8.30;99.90
24468;DHT22;12634;50.852;5.676;2023-04-24T05:07:02;8.30;99.90
24468;DHT22;12634;50.852;5.676;2023-04-24T05:09:29;8.30;99.90
24468;DHT22;12634;50.852;5.676;2023-04-24T05:11:56;8.30;99.90
24468;DHT22;12634;50.852;5.676;2023-04-24T05:14:23;8.40;99.90
24468;DHT22;12634;50.852;5.676;2023-04-24T05:16:50;8.40;99.90
24468;DHT22;12634;50.852;5.676;2023-04-24T05:19:18;8.40;99.90
24468;DHT22;12634;50.852;5.676;2023-04-24T05:21:45;8.40;99.90
24468;DHT22;12634;50.852;5.676;2023-04-24T05:24:14;8.40;99.90
24468;DHT22;12634;50.852;5.676;2023-04-24T05:26:41;8.50;99.90
24468;DHT22;12634;50.852;5.676;2023-04-24T05:29:08;8.50;99.90
24468;DHT22;12634;50.852;5.676;2023-04-24T05:31:36;8.50;99.90
24468;DHT22;12634;50.852;5.676;2023-04-24T05:34:03;8.50;99.90
24468;DHT22;12634;50.852;5.676;2023-04-24T05:36:30;8.50;99.90
24468;DHT22;12634;50.852;5.676;2023-04-24T05:38:58;8.50;99.90
24468;DHT22;12634;50.852;5.676;2023-04-24T05:41:26;8.50;99.90
24468;DHT22;12634;50.852;5.676;2023-04-24T05:43:53;8.50;99.90
24468;DHT22;12634;50.852;5.676;2023-04-24T05:46:20;8.60;99.90
24468;DHT22;12634;50.852;5.676;2023-04-24T05:48:48;8.50;99.90
24468;DHT22;12634;50.852;5.676;2023-04-24T05:51:15;8.60;99.90
24468;DHT22;12634;50.852;5.676;2023-04-24T05:53:42;8.50;99.90
24468;DHT22;12634;50.852;5.676;2023-04-24T05:56:09;8.60;99.90
24468;DHT22;12634;50.852;5.676;2023-04-24T05:58:37;8.60;99.90
24468;DHT22;12634;50.852;5.676;2023-04-24T06:01:05;8.60;99.90
24468;DHT22;12634;50.852;5.676;2023-04-24T06:03:32;8.60;99.90
24468;DHT22;12634;50.852;5.676;2023-04-24T06:05:59;8.60;99.90
24468;DHT22;12634;50.852;5.676;2023-04-24T06:08:26;8.60;99.90
24468;DHT22;12634;50.852;5.676;2023-04-24T06:10:53;8.50;99.90
24468;DHT22;12634;50.852;5.676;2023-04-24T06:13:21;8.50;99.90
24468;DHT22;12634;50.852;5.676;2023-04-24T06:15:49;8.40;99.90
24468;DHT22;12634;50.852;5.676;2023-04-24T06:18:16;8.40;99.90
24468;DHT22;12634;50.852;5.676;2023-04-24T06:20:44;8.40;99.90
24468;DHT22;12634;50.852;5.676;2023-04-24T06:23:11;8.30;99.90
24468;DHT22;12634;50.852;5.676;2023-04-24T06:25:39;8.30;99.90
24468;DHT22;12634;50.852;5.676;2023-04-24T06:28:06;8.30;99.90
24468;DHT22;12634;50.852;5.676;2023-04-24T06:30:33;8.30;99.90
24468;DHT22;12634;50.852;5.676;2023-04-24T06:33:01;8.30;99.90
24468;DHT22;12634;50.852;5.676;2023-04-24T06:35:29;8.20;99.90
24468;DHT22;12634;50.852;5.676;2023-04-24T06:37:56;8.20;99.90
24468;DHT22;12634;50.852;5.676;2023-04-24T06:40:23;8.20;99.90
24468;DHT22;12634;50.852;5.676;2023-04-24T06:42:50;8.20;99.90
24468;DHT22;12634;50.852;5.676;2023-04-24T06:45:18;8.20;99.90
24468;DHT22;12634;50.852;5.676;2023-04-24T06:47:45;8.20;99.90
24468;DHT22;12634;50.852;5.676;2023-04-24T06:50:14;8.20;99.90
24468;DHT22;12634;50.852;5.676;2023-04-24T06:52:42;8.10;99.90
24468;DHT22;12634;50.852;5.676;2023-04-24T06:55:10;8.20;99.90
24468;DHT22;12634;50.852;5.676;2023-04-24T06:57:37;8.20;99.90
24468;DHT22;12634;50.852;5.676;2023-04-24T07:00:06;8.20;99.90
24468;DHT22;12634;50.852;5.676;2023-04-24T07:02:35;8.30;99.90
24468;DHT22;12634;50.852;5.676;2023-04-24T07:05:03;8.20;99.90
24468;DHT22;12634;50.852;5.676;2023-04-24T07:07:32;8.30;99.90
24468;DHT22;12634;50.852;5.676;2023-04-24T07:09:59;8.30;99.90
24468;DHT22;12634;50.852;5.676;2023-04-24T07:12:27;8.20;99.90
24468;DHT22;12634;50.852;5.676;2023-04-24T07:14:54;8.20;99.90
24468;DHT22;12634;50.852;5.676;2023-04-24T07:17:21;8.20;99.90
24468;DHT22;12634;50.852;5.676;2023-04-24T07:19:48;8.20;99.90
24468;DHT22;12634;50.852;5.676;2023-04-24T07:22:15;8.20;99.90
24468;DHT22;12634;50.852;5.676;2023-04-24T07:24:44;8.30;99.90
24468;DHT22;12634;50.852;5.676;2023-04-24T07:27:12;8.30;99.90
24468;DHT22;12634;50.852;5.676;2023-04-24T07:29:40;8.30;99.90
24468;DHT22;12634;50.852;5.676;2023-04-24T07:32:07;8.30;99.90
24468;DHT22;12634;50.852;5.676;2023-04-24T07:34:34;8.30;99.90
24468;DHT22;12634;50.852;5.676;2023-04-24T07:37:02;8.40;99.90
24468;DHT22;12634;50.852;5.676;2023-04-24T07:39:29;8.40;99.90
24468;DHT22;12634;50.852;5.676;2023-04-24T07:41:58;8.50;99.90
24468;DHT22;12634;50.852;5.676;2023-04-24T07:44:28;8.50;99.90
24468;DHT22;12634;50.852;5.676;2023-04-24T07:46:56;8.60;99.90
24468;DHT22;12634;50.852;5.676;2023-04-24T07:49:23;8.60;99.90
24468;DHT22;12634;50.852;5.676;2023-04-24T07:51:50;8.60;99.90
24468;DHT22;12634;50.852;5.676;2023-04-24T07:54:18;8.50;99.90
24468;DHT22;12634;50.852;5.676;2023-04-24T07:56:45;8.60;99.90
24468;DHT22;12634;50.852;5.676;2023-04-24T07:59:13;8.60;99.90
24468;DHT22;12634;50.852;5.676;2023-04-24T08:01:40;8.70;99.90
24468;DHT22;12634;50.852;5.676;2023-04-24T08:04:07;8.80;99.90
24468;DHT22;12634;50.852;5.676;2023-04-24T08:06:35;8.80;99.90
24468;DHT22;12634;50.852;5.676;2023-04-24T08:09:02;8.80;99.90
24468;DHT22;12634;50.852;5.676;2023-04-24T08:11:29;8.80;99.90
24468;DHT22;12634;50.852;5.676;2023-04-24T08:13:57;8.80;99.90
24468;DHT22;12634;50.852;5.676;2023-04-24T08:16:26;8.80;99.90
24468;DHT22;12634;50.852;5.676;2023-04-24T08:18:53;8.80;99.90
24468;DHT22;12634;50.852;5.676;2023-04-24T08:21:20;8.80;99.90
24468;DHT22;12634;50.852;5.676;2023-04-24T08:23:47;8.80;99.90
24468;DHT22;12634;50.852;5.676;2023-04-24T08:26:14;8.90;99.90
24468;DHT22;12634;50.852;5.676;2023-04-24T08:28:42;8.90;99.90
24468;DHT22;12634;50.852;5.676;2023-04-24T08:31:09;8.90;99.90
24468;DHT22;12634;50.852;5.676;2023-04-24T08:33:38;9.00;99.90
24468;DHT22;12634;50.852;5.676;2023-04-24T08:36:06;8.90;99.90
24468;DHT22;12634;50.852;5.676;2023-04-24T08:38:34;9.00;99.90
24468;DHT22;12634;50.852;5.676;2023-04-24T08:41:01;9.00;99.90
24468;DHT22;12634;50.852;5.676;2023-04-24T08:43:31;8.90;99.90
24468;DHT22;12634;50.852;5.676;2023-04-24T08:45:59;8.80;99.90
24468;DHT22;12634;50.852;5.676;2023-04-24T08:48:28;8.80;99.90
24468;DHT22;12634;50.852;5.676;2023-04-24T08:50:57;8.80;99.90
24468;DHT22;12634;50.852;5.676;2023-04-24T08:53:25;8.90;99.90
24468;DHT22;12634;50.852;5.676;2023-04-24T08:55:54;9.00;99.90
24468;DHT22;12634;50.852;5.676;2023-04-24T08:58:23;9.20;99.90
24468;DHT22;12634;50.852;5.676;2023-04-24T09:00:53;9.10;99.90
24468;DHT22;12634;50.852;5.676;2023-04-24T09:03:21;9.20;99.90
24468;DHT22;12634;50.852;5.676;2023-04-24T09:05:49;9.40;99.90
24468;DHT22;12634;50.852;5.676;2023-04-24T09:08:18;9.50;99.90
24468;DHT22;12634;50.852;5.676;2023-04-24T09:10:46;9.70;99.90
24468;DHT22;12634;50.852;5.676;2023-04-24T09:13:13;9.70;99.90
24468;DHT22;12634;50.852;5.676;2023-04-24T09:15:41;10.00;99.90
24468;DHT22;12634;50.852;5.676;2023-04-24T09:18:08;10.10;99.90
24468;DHT22;12634;50.852;5.676;2023-04-24T09:20:35;10.00;99.90
24468;DHT22;12634;50.852;5.676;2023-04-24T09:23:26;9.90;99.90
24468;DHT22;12634;50.852;5.676;2023-04-24T09:25:55;9.60;99.90
24468;DHT22;12634;50.852;5.676;2023-04-24T09:28:26;9.50;99.90
24468;DHT22;12634;50.852;5.676;2023-04-24T09:31:03;9.40;99.90
24468;DHT22;12634;50.852;5.676;2023-04-24T09:33:31;9.20;99.90
24468;DHT22;12634;50.852;5.676;2023-04-24T09:35:58;9.40;99.90
24468;DHT22;12634;50.852;5.676;2023-04-24T09:38:35;9.70;99.90
24468;DHT22;12634;50.852;5.676;2023-04-24T09:41:04;9.90;99.90
24468;DHT22;12634;50.852;5.676;2023-04-24T09:43:32;9.90;99.90
24468;DHT22;12634;50.852;5.676;2023-04-24T09:46:05;9.80;99.90
24468;DHT22;12634;50.852;5.676;2023-04-24T09:48:33;10.20;99.90
24468;DHT22;12634;50.852;5.676;2023-04-24T09:51:03;10.60;99.90
24468;DHT22;12634;50.852;5.676;2023-04-24T09:53:33;10.40;99.90
24468;DHT22;12634;50.852;5.676;2023-04-24T09:56:08;11.00;99.90
24468;DHT22;12634;50.852;5.676;2023-04-24T09:58:36;11.70;99.90
24468;DHT22;12634;50.852;5.676;2023-04-24T10:01:03;11.60;99.90
24468;DHT22;12634;50.852;5.676;2023-04-24T10:03:31;12.50;99.90
24468;DHT22;12634;50.852;5.676;2023-04-24T10:05:59;11.90;99.90
24468;DHT22;12634;50.852;5.676;2023-04-24T10:08:26;11.70;99.90
24468;DHT22;12634;50.852;5.676;2023-04-24T10:11:01;11.40;99.90
24468;DHT22;12634;50.852;5.676;2023-04-24T10:13:28;11.50;99.90
24468;DHT22;12634;50.852;5.676;2023-04-24T10:15:56;11.90;99.90
24468;DHT22;12634;50.852;5.676;2023-04-24T10:18:26;12.50;99.90
24468;DHT22;12634;50.852;5.676;2023-04-24T10:20:54;12.80;99.90
24468;DHT22;12634;50.852;5.676;2023-04-24T10:23:22;12.10;99.90
24468;DHT22;12634;50.852;5.676;2023-04-24T10:25:51;12.30;99.90
24468;DHT22;12634;50.852;5.676;2023-04-24T10:28:21;11.90;99.90
24468;DHT22;12634;50.852;5.676;2023-04-24T10:30:48;11.60;99.90
24468;DHT22;12634;50.852;5.676;2023-04-24T10:33:17;11.30;99.90
24468;DHT22;12634;50.852;5.676;2023-04-24T10:35:47;11.00;99.90
24468;DHT22;12634;50.852;5.676;2023-04-24T10:38:24;10.60;99.90
24468;DHT22;12634;50.852;5.676;2023-04-24T10:40:51;10.50;99.90
24468;DHT22;12634;50.852;5.676;2023-04-24T10:43:25;10.60;99.90
24468;DHT22;12634;50.852;5.676;2023-04-24T10:46:02;10.70;99.90
24468;DHT22;12634;50.852;5.676;2023-04-24T10:48:29;11.70;99.90
24468;DHT22;12634;50.852;5.676;2023-04-24T10:50:58;11.90;99.90
24468;DHT22;12634;50.852;5.676;2023-04-24T10:53:28;11.80;99.90
24468;DHT22;12634;50.852;5.676;2023-04-24T10:55:58;11.90;99.90
24468;DHT22;12634;50.852;5.676;2023-04-24T10:58:38;12.20;99.90
24468;DHT22;12634;50.852;5.676;2023-04-24T11:01:06;12.40;99.90
24468;DHT22;12634;50.852;5.676;2023-04-24T11:03:34;12.10;99.90
24468;DHT22;12634;50.852;5.676;2023-04-24T11:06:05;12.50;99.90
24468;DHT22;12634;50.852;5.676;2023-04-24T11:08:38;12.20;99.90
24468;DHT22;12634;50.852;5.676;2023-04-24T11:11:10;12.40;99.90
24468;DHT22;12634;50.852;5.676;2023-04-24T11:14:04;12.40;99.90
24468;DHT22;12634;50.852;5.676;2023-04-24T11:16:33;12.70;99.90
24468;DHT22;12634;50.852;5.676;2023-04-24T11:19:03;12.50;99.90
24468;DHT22;12634;50.852;5.676;2023-04-24T11:21:41;12.90;99.90
24468;DHT22;12634;50.852;5.676;2023-04-24T11:24:25;13.20;99.90
24468;DHT22;12634;50.852;5.676;2023-04-24T11:26:54;14.40;99.90
24468;DHT22;12634;50.852;5.676;2023-04-24T11:29:38;14.60;99.90
24468;DHT22;12634;50.852;5.676;2023-04-24T11:32:18;14.20;99.90
24468;DHT22;12634;50.852;5.676;2023-04-24T11:34:47;14.00;99.90
24468;DHT22;12634;50.852;5.676;2023-04-24T11:37:14;13.70;99.90
24468;DHT22;12634;50.852;5.676;2023-04-24T11:39:41;13.00;99.90
24468;DHT22;12634;50.852;5.676;2023-04-24T11:42:09;12.40;99.90
24468;DHT22;12634;50.852;5.676;2023-04-24T11:44:38;12.20;99.90
24468;DHT22;12634;50.852;5.676;2023-04-24T11:47:06;12.30;99.90
24468;DHT22;12634;50.852;5.676;2023-04-24T11:49:36;12.70;99.90
24468;DHT22;12634;50.852;5.676;2023-04-24T11:52:04;13.20;99.90
24468;DHT22;12634;50.852;5.676;2023-04-24T11:54:31;13.40;99.90
24468;DHT22;12634;50.852;5.676;2023-04-24T11:56:59;13.80;99.90
24468;DHT22;12634;50.852;5.676;2023-04-24T11:59:26;13.80;99.90
24468;DHT22;12634;50.852;5.676;2023-04-24T12:01:54;13.50;99.90
24468;DHT22;12634;50.852;5.676;2023-04-24T12:04:21;13.30;99.90
24468;DHT22;12634;50.852;5.676;2023-04-24T12:07:03;12.80;99.90
24468;DHT22;12634;50.852;5.676;2023-04-24T12:09:40;12.40;99.90
24468;DHT22;12634;50.852;5.676;2023-04-24T12:12:08;12.50;99.90
24468;DHT22;12634;50.852;5.676;2023-04-24T12:14:43;13.00;99.90
24468;DHT22;12634;50.852;5.676;2023-04-24T12:17:11;13.30;99.90
24468;DHT22;12634;50.852;5.676;2023-04-24T12:19:45;13.10;99.90
24468;DHT22;12634;50.852;5.676;2023-04-24T12:22:12;13.00;99.90
24468;DHT22;12634;50.852;5.676;2023-04-24T12:24:57;12.60;99.90
24468;DHT22;12634;50.852;5.676;2023-04-24T12:27:25;12.30;99.90
24468;DHT22;12634;50.852;5.676;2023-04-24T12:29:52;12.30;99.90
24468;DHT22;12634;50.852;5.676;2023-04-24T12:32:21;12.60;99.90
24468;DHT22;12634;50.852;5.676;2023-04-24T12:34:49;12.90;99.90
24468;DHT22;12634;50.852;5.676;2023-04-24T12:37:17;13.70;99.90
24468;DHT22;12634;50.852;5.676;2023-04-24T12:40:02;13.50;99.90
24468;DHT22;12634;50.852;5.676;2023-04-24T12:42:29;13.70;99.90
24468;DHT22;12634;50.852;5.676;2023-04-24T12:44:57;13.40;99.90
24468;DHT22;12634;50.852;5.676;2023-04-24T12:47:27;13.50;99.90
24468;DHT22;12634;50.852;5.676;2023-04-24T12:49:54;13.60;99.90
24468;DHT22;12634;50.852;5.676;2023-04-24T12:52:22;13.90;99.90
24468;DHT22;12634;50.852;5.676;2023-04-24T12:54:53;13.30;99.90
24468;DHT22;12634;50.852;5.676;2023-04-24T12:57:21;13.50;99.90
24468;DHT22;12634;50.852;5.676;2023-04-24T12:59:48;13.20;99.90
24468;DHT22;12634;50.852;5.676;2023-04-24T13:02:15;13.20;99.90
24468;DHT22;12634;50.852;5.676;2023-04-24T13:04:45;13.60;99.90
24468;DHT22;12634;50.852;5.676;2023-04-24T13:07:13;14.00;99.90
24468;DHT22;12634;50.852;5.676;2023-04-24T13:09:40;13.90;99.90
24468;DHT22;12634;50.852;5.676;2023-04-24T13:12:08;14.10;99.90
24468;DHT22;12634;50.852;5.676;2023-04-24T13:14:35;13.60;99.90
24468;DHT22;12634;50.852;5.676;2023-04-24T13:17:03;14.80;99.90
24468;DHT22;12634;50.852;5.676;2023-04-24T13:19:36;15.20;99.90
24468;DHT22;12634;50.852;5.676;2023-04-24T13:22:04;16.10;99.90
24468;DHT22;12634;50.852;5.676;2023-04-24T13:24:32;15.70;99.90
24468;DHT22;12634;50.852;5.676;2023-04-24T13:27:00;14.80;99.90
24468;DHT22;12634;50.852;5.676;2023-04-24T13:29:28;14.00;99.90
24468;DHT22;12634;50.852;5.676;2023-04-24T13:31:55;13.50;99.90
24468;DHT22;12634;50.852;5.676;2023-04-24T13:34:23;13.60;99.90
24468;DHT22;12634;50.852;5.676;2023-04-24T13:36:51;13.60;99.90
24468;DHT22;12634;50.852;5.676;2023-04-24T13:39:20;14.40;99.90
24468;DHT22;12634;50.852;5.676;2023-04-24T13:41:47;14.10;99.90
24468;DHT22;12634;50.852;5.676;2023-04-24T13:44:15;14.10;99.90
24468;DHT22;12634;50.852;5.676;2023-04-24T13:46:42;13.70;99.90
24468;DHT22;12634;50.852;5.676;2023-04-24T13:49:10;13.70;99.90
24468;DHT22;12634;50.852;5.676;2023-04-24T13:51:38;14.60;99.90
24468;DHT22;12634;50.852;5.676;2023-04-24T13:54:05;15.10;99.90
24468;DHT22;12634;50.852;5.676;2023-04-24T13:56:34;16.00;99.90
24468;DHT22;12634;50.852;5.676;2023-04-24T13:59:01;15.60;99.90
24468;DHT22;12634;50.852;5.676;2023-04-24T14:01:28;15.20;99.90
24468;DHT22;12634;50.852;5.676;2023-04-24T14:03:56;16.00;99.90
24468;DHT22;12634;50.852;5.676;2023-04-24T14:06:23;15.40;99.90
24468;DHT22;12634;50.852;5.676;2023-04-24T14:08:51;14.80;99.90
24468;DHT22;12634;50.852;5.676;2023-04-24T14:11:19;15.30;99.90
24468;DHT22;12634;50.852;5.676;2023-04-24T14:13:48;15.00;99.90
24468;DHT22;12634;50.852;5.676;2023-04-24T14:16:15;14.40;99.90
24468;DHT22;12634;50.852;5.676;2023-04-24T14:18:43;14.70;99.90
24468;DHT22;12634;50.852;5.676;2023-04-24T14:21:10;15.30;99.90
24468;DHT22;12634;50.852;5.676;2023-04-24T14:23:37;15.20;99.90
24468;DHT22;12634;50.852;5.676;2023-04-24T14:26:04;14.90;99.90
24468;DHT22;12634;50.852;5.676;2023-04-24T14:28:32;15.90;99.90
24468;DHT22;12634;50.852;5.676;2023-04-24T14:31:00;16.30;99.90
24468;DHT22;12634;50.852;5.676;2023-04-24T14:33:27;16.00;99.90
24468;DHT22;12634;50.852;5.676;2023-04-24T14:35:54;16.90;99.90
24468;DHT22;12634;50.852;5.676;2023-04-24T14:38:22;16.60;99.90
24468;DHT22;12634;50.852;5.676;2023-04-24T14:40:49;16.00;99.90
24468;DHT22;12634;50.852;5.676;2023-04-24T14:43:16;15.00;99.90
24468;DHT22;12634;50.852;5.676;2023-04-24T14:45:43;14.00;99.90
24468;DHT22;12634;50.852;5.676;2023-04-24T14:48:12;13.80;99.90
24468;DHT22;12634;50.852;5.676;2023-04-24T14:50:39;13.60;99.90
24468;DHT22;12634;50.852;5.676;2023-04-24T14:53:06;13.20;99.90
24468;DHT22;12634;50.852;5.676;2023-04-24T14:55:33;13.00;99.90
24468;DHT22;12634;50.852;5.676;2023-04-24T14:58:02;13.00;99.90
24468;DHT22;12634;50.852;5.676;2023-04-24T15:00:29;12.90;99.90
24468;DHT22;12634;50.852;5.676;2023-04-24T15:02:56;13.20;99.90
24468;DHT22;12634;50.852;5.676;2023-04-24T15:05:25;13.50;99.90
24468;DHT22;12634;50.852;5.676;2023-04-24T15:07:52;13.60;99.90
24468;DHT22;12634;50.852;5.676;2023-04-24T15:10:19;13.60;99.90
24468;DHT22;12634;50.852;5.676;2023-04-24T15:12:48;13.40;99.90
24468;DHT22;12634;50.852;5.676;2023-04-24T15:15:15;13.20;99.90
24468;DHT22;12634;50.852;5.676;2023-04-24T15:17:43;13.00;99.90
24468;DHT22;12634;50.852;5.676;2023-04-24T15:20:10;12.90;99.90
24468;DHT22;12634;50.852;5.676;2023-04-24T15:22:38;13.00;99.90
24468;DHT22;12634;50.852;5.676;2023-04-24T15:25:06;12.90;99.90
24468;DHT22;12634;50.852;5.676;2023-04-24T15:27:42;12.90;99.90
24468;DHT22;12634;50.852;5.676;2023-04-24T15:30:10;12.70;99.90
24468;DHT22;12634;50.852;5.676;2023-04-24T15:32:38;12.70;99.90
24468;DHT22;12634;50.852;5.676;2023-04-24T15:35:06;12.70;99.90
24468;DHT22;12634;50.852;5.676;2023-04-24T15:37:33;12.70;99.90
24468;DHT22;12634;50.852;5.676;2023-04-24T15:40:02;12.80;99.90
24468;DHT22;12634;50.852;5.676;2023-04-24T15:42:32;12.60;99.90
24468;DHT22;12634;50.852;5.676;2023-04-24T15:44:59;12.80;99.90
24468;DHT22;12634;50.852;5.676;2023-04-24T15:47:26;13.00;99.90